Lehighton, Pennsylvania
Current Conditions -  °F | °C
As of 6:55 AM on Tuesday 21 Oct 2014 (Local Time) from KHZL Reporting Station
Overcast Overcast  
Wind Chill: 50°   Ceiling: 5000
Heat Index: 50°   Visibility: 7mi
Dew Point: 46°   Wind: 3mph
Humidity: 87%   Direction: 150°SSE
Pressure: 29.87"   Gusts: NA
Location:  40.83°N, 75.71°W
Report Text: KHZL 211055Z AUTO 15003KT 7SM SCT044 OVC050 10/08 A2987 RMK AO2
Loading
Personal Weather Stations






























Interactive Weather Map New forecast layout! Learn more

10-Day Weather Forecast

Advertisements
Track Severe Weather on mobile